< Typhoon 201914 2019 Season Typhoon 201916 >
Typhoon 201915 (FAXAI)
Reiwa First Year Boso Peninsula Typhoon
General InformationTrack Information on Google MapsDetailed Wind InformationForecast History on Google MapsAccess Analytics MapList of All Images || NewsDisaster Info.WeblogTrackbackTyphoon FrontTwiphoonTyphoon Now!Typhoon ImaginationJMA Disaster Info. XMLResourceGoogle EarthGE AnimationAtom FeedGeoJSON
Detalied Best Track (Time Zone = UTC)
Year Month Day Hour Lat. Long. Pressure (hPa) Wind (kt) Class Image Chart
2019 9 2 00 15.9 167.9 1010 0 2 Image Chart
2019 9 2 06 16.2 166.6 1008 0 2 Image Chart
2019 9 2 12 16.5 165.4 1008 0 2 Image Chart
2019 9 2 18 16.8 164.3 1008 0 2 Image Chart
2019 9 3 00 17.0 163.0 1008 0 2 Image Chart
2019 9 3 06 17.1 161.8 1006 0 2 Image Chart
2019 9 3 12 17.2 161.0 1008 0 2 Image Chart
2019 9 3 18 17.5 160.2 1006 0 2 Image Chart
2019 9 4 00 17.8 159.4 1008 0 2 Image Chart
2019 9 4 06 18.0 158.5 1006 0 2 Image Chart
2019 9 4 12 18.3 157.5 1004 0 2 Image Chart
2019 9 4 18 18.6 156.7 1002 35 3 Image Chart
2019 9 5 00 19.1 156.1 1000 35 3 Image Chart
2019 9 5 06 19.7 155.5 998 40 3 Image Chart
2019 9 5 12 20.6 154.6 996 40 3 Image Chart
2019 9 5 18 21.6 153.2 994 40 3 Image Chart
2019 9 6 00 22.6 151.6 992 45 3 Image Chart
2019 9 6 06 23.7 149.9 990 50 4 Image Chart
2019 9 6 12 24.6 148.1 985 55 4 Image Chart
2019 9 6 18 25.7 146.5 980 60 4 Image Chart
2019 9 7 00 26.7 145.0 975 65 5 Image Chart
2019 9 7 03 27.3 144.1 970 70 5 Image Chart
2019 9 7 06 27.9 143.3 970 70 5 Image Chart
2019 9 7 09 28.4 142.6 965 75 5 Image Chart
2019 9 7 12 28.9 141.8 960 80 5 Image Chart
2019 9 7 15 29.5 141.2 960 80 5 Image Chart
2019 9 7 18 30.2 140.5 955 85 5 Image Chart
2019 9 7 21 30.8 140.0 955 85 5 Image Chart
2019 9 8 00 31.5 139.5 955 85 5 Image Chart
2019 9 8 03 32.2 139.2 955 85 5 Image Chart
2019 9 8 06 33.0 139.0 955 85 5 Image Chart
2019 9 8 09 33.5 138.9 955 85 5 Image Chart
2019 9 8 12 34.1 139.0 955 85 5 Image Chart
2019 9 8 15 34.7 139.3 960 80 5 Image Chart
2019 9 8 17 35.1 139.5 960 80 5 Image Chart
2019 9 8 18 35.3 139.7 960 80 5 Image Chart
2019 9 8 19 35.5 139.9 960 80 5 Image Chart
2019 9 8 21 35.9 140.3 960 80 5 Image Chart
2019 9 9 00 36.4 140.9 970 75 5 Image Chart
2019 9 9 03 36.9 141.6 975 70 5 Image Chart
2019 9 9 06 37.4 142.4 980 65 5 Image Chart
2019 9 9 12 38.3 144.3 985 60 4 Image Chart
2019 9 9 18 39.0 146.4 990 55 4 Image Chart
2019 9 10 00 39.7 148.8 992 0 6 Image Chart
2019 9 10 06 40.5 151.5 996 0 6 Image Chart
2019 9 10 12 41.3 155.0 998 0 6 Image Chart
2019 9 10 18 42.3 158.2 1000 0 6 Image Chart
2019 9 11 00 43.2 162.7 1000 0 6 Image Chart
2019 9 11 06 44.5 168.7 1002 0 6 Image Chart
2019 9 11 12 46.8 175.9 1002 0 6 Image Chart
Japan Meteorological Agency Best Track Data | Correction Date : 2019-11-14
< Typhoon 201914 2019 Season Typhoon 201916 >

Help